< < Back
Terminal Aerodrome Forecast


Current Version              Previous Versions:   1  2  3  4  5  6  7  8  9  

Terminal Aerodrome Forecast

151
FTUS44 KOHX 111722
TAFCSV
TAF
KCSV 111722Z 1118/1218 02004KT P6SM SKC
     FM120800 VRB03KT P6SM BKN100
     FM121500 32004KT P6SM VCSH OVC020=

Latest METAR

855
SAUS70 KWBC 112300 RRF
MTRCSV
METAR KCSV 112253Z AUTO 02005KT 10SM CLR 03/M06 A3018 RMK AO2 SLP233
T00281061


USA.gov is the U.S. government's official web portal to all federal, state and local government web resources and services.